Time;durP1;ratioP1;P1;durP2;ratioP2;P2;SDS_P1;SDS_P2;PMS_P1;PMS_P2;Temp;Humidity;BMP_temperature;BMP_pressure;BME280_temperature;BME280_humidity;BME280_pressure;Samples;Min_cycle;Max_cycle;Signal;HPM_P1;HPM_P2
2023/08/31 00:00:41;;;;;;;820.28;736.67;;;;;;;;;;5065873;28;20533;-61
2023/08/31 00:03:09;;;;;;;829.90;745.05;;;;;;;;;;5064522;28;20079;-59
2023/08/31 00:05:41;;;;;;;826.90;743.20;;;;;;;;;;5066372;28;20032;-60
2023/08/31 00:08:07;;;;;;;804.67;724.53;;;;;;;;;;5063961;28;20500;-57
2023/08/31 00:10:35;;;;;;;820.50;736.13;;;;;;;;;;5064873;28;20133;-60
2023/08/31 00:13:02;;;;;;;825.78;739.08;;;;;;;;;;5066909;28;20143;-60
2023/08/31 00:15:29;;;;;;;830.42;744.90;;;;;;;;;;5067750;28;20680;-62
2023/08/31 00:17:55;;;;;;;814.65;732.70;;;;;;;;;;5068800;28;20049;-60
2023/08/31 00:20:22;;;;;;;826.75;741.80;;;;;;;;;;5062173;28;20049;-54
2023/08/31 00:22:48;;;;;;;832.75;745.08;;;;;;;;;;5065026;28;20043;-60
2023/08/31 00:25:15;;;;;;;819.50;736.55;;;;;;;;;;5067587;28;20044;-60
2023/08/31 00:27:42;;;;;;;829.38;744.90;;;;;;;;;;5064570;28;20041;-60
2023/08/31 00:30:11;;;;;;;825.50;742.28;;;;;;;;;;5068356;28;20166;-58
2023/08/31 00:32:39;;;;;;;818.35;734.78;;;;;;;;;;5075212;28;20073;-60
2023/08/31 00:35:06;;;;;;;843.53;756.15;;;;;;;;;;5066110;28;20496;-60
2023/08/31 00:37:34;;;;;;;810.20;727.58;;;;;;;;;;5062480;28;20099;-60
2023/08/31 00:40:00;;;;;;;808.13;725.17;;;;;;;;;;5063668;28;20136;-60
2023/08/31 00:42:29;;;;;;;837.22;748.47;;;;;;;;;;5064553;28;20048;-62
2023/08/31 00:44:56;;;;;;;827.17;741.25;;;;;;;;;;5057892;28;20045;-60
2023/08/31 00:47:23;;;;;;;815.08;730.53;;;;;;;;;;5063636;28;20502;-62
2023/08/31 00:49:50;;;;;;;831.03;746.45;;;;;;;;;;5096403;28;20095;-62
2023/08/31 00:52:18;;;;;;;812.38;730.40;;;;;;;;;;5065595;28;20048;-61
2023/08/31 00:54:47;;;;;;;813.85;729.67;;;;;;;;;;5065820;28;20040;-60
2023/08/31 00:57:14;;;;;;;825.78;740.45;;;;;;;;;;5067094;28;20072;-62
2023/08/31 00:59:41;;;;;;;811.75;727.88;;;;;;;;;;5061163;28;20446;-58
2023/08/31 01:02:16;;;;;;;821.72;738.50;;;;;;;;;;5063501;28;20119;-60
2023/08/31 01:04:55;;;;;;;808.90;725.30;;;;;;;;;;5066573;28;20397;-60
2023/08/31 01:07:39;;;;;;;824.13;737.40;;;;;;;;;;5060724;28;20049;-60
2023/08/31 01:10:25;;;;;;;815.88;733.35;;;;;;;;;;5060366;28;20059;-53
2023/08/31 01:12:55;;;;;;;825.85;741.08;;;;;;;;;;5066634;28;20032;-60
2023/08/31 01:15:21;;;;;;;820.70;731.28;;;;;;;;;;5055766;28;20105;-63
2023/08/31 01:17:50;;;;;;;821.95;737.70;;;;;;;;;;5064662;28;20075;-60
2023/08/31 01:20:20;;;;;;;809.28;727.45;;;;;;;;;;5073664;28;20060;-60
2023/08/31 01:23:00;;;;;;;813.67;730.63;;;;;;;;;;5064860;28;20048;-60
2023/08/31 01:25:26;;;;;;;814.42;730.97;;;;;;;;;;5076354;28;20398;-59
2023/08/31 01:27:55;;;;;;;817.88;731.95;;;;;;;;;;5065967;28;20123;-59
2023/08/31 01:30:22;;;;;;;826.25;740.03;;;;;;;;;;5064068;28;20122;-60
2023/08/31 01:32:50;;;;;;;811.20;728.15;;;;;;;;;;5096688;28;20121;-62
2023/08/31 01:35:17;;;;;;;800.10;719.20;;;;;;;;;;5066771;28;20123;-61
2023/08/31 01:37:50;;;;;;;816.35;732.33;;;;;;;;;;5091087;28;20041;-59
2023/08/31 01:40:26;;;;;;;810.47;726.90;;;;;;;;;;5064930;28;20046;-61
2023/08/31 01:42:53;;;;;;;818.67;735.40;;;;;;;;;;5063656;28;20097;-62
2023/08/31 01:45:20;;;;;;;821.67;736.10;;;;;;;;;;5063242;28;20055;-60
2023/08/31 01:47:48;;;;;;;816.70;732.35;;;;;;;;;;5071360;28;20048;-60
2023/08/31 01:50:14;;;;;;;809.95;726.65;;;;;;;;;;5062642;28;20127;-59
2023/08/31 01:52:41;;;;;;;812.33;730.60;;;;;;;;;;5097618;28;20075;-61
2023/08/31 01:55:08;;;;;;;812.13;728.55;;;;;;;;;;5065981;28;20159;-59
2023/08/31 01:57:34;;;;;;;818.28;734.60;;;;;;;;;;5075528;28;20060;-61
2023/08/31 02:00:07;;;;;;;807.05;724.97;;;;;;;;;;5070810;28;20053;-60
2023/08/31 02:02:40;;;;;;;795.58;712.30;;;;;;;;;;5103372;22;20163;-60
2023/08/31 02:05:07;;;;;;;786.35;706.67;;;;;;;;;;5071174;28;20115;-59
2023/08/31 02:07:33;;;;;;;805.70;723.78;;;;;;;;;;5053266;28;20077;-59
2023/08/31 02:10:01;;;;;;;784.50;704.15;;;;;;;;;;5071292;28;20040;-59
2023/08/31 02:12:27;;;;;;;811.60;723.85;;;;;;;;;;5069966;28;20477;-59
2023/08/31 02:14:55;;;;;;;790.72;709.15;;;;;;;;;;5062552;28;20153;-60
2023/08/31 02:17:22;;;;;;;788.67;706.33;;;;;;;;;;5066519;28;20063;-59
2023/08/31 02:19:48;;;;;;;798.33;716.13;;;;;;;;;;5062869;28;20044;-59
2023/08/31 02:22:15;;;;;;;793.35;711.72;;;;;;;;;;5053337;28;20152;-60
2023/08/31 02:24:41;;;;;;;789.60;708.55;;;;;;;;;;5060448;28;20145;-59
2023/08/31 02:27:08;;;;;;;778.15;698.42;;;;;;;;;;5072827;28;20068;-59
2023/08/31 02:29:34;;;;;;;784.88;705.05;;;;;;;;;;5070964;28;20127;-60
2023/08/31 02:32:04;;;;;;;789.63;708.25;;;;;;;;;;5062325;28;20045;-60
2023/08/31 02:34:32;;;;;;;788.78;706.53;;;;;;;;;;5071398;28;20110;-60
2023/08/31 02:36:59;;;;;;;792.83;710.25;;;;;;;;;;5071245;28;20048;-61
2023/08/31 02:39:27;;;;;;;794.60;709.65;;;;;;;;;;5067950;28;20144;-59
2023/08/31 02:41:53;;;;;;;795.53;714.40;;;;;;;;;;5071917;28;20060;-60
2023/08/31 02:44:20;;;;;;;776.78;695.10;;;;;;;;;;5058352;28;20041;-60
2023/08/31 02:46:47;;;;;;;789.83;708.13;;;;;;;;;;5070652;28;20500;-60
2023/08/31 02:49:14;;;;;;;780.05;699.45;;;;;;;;;;5062613;28;20084;-60
2023/08/31 02:51:41;;;;;;;794.17;712.90;;;;;;;;;;5070718;28;20477;-61
2023/08/31 02:54:08;;;;;;;786.17;703.85;;;;;;;;;;5071982;28;20056;-60
2023/08/31 02:56:34;;;;;;;781.85;702.83;;;;;;;;;;5069037;28;20053;-60
2023/08/31 02:59:01;;;;;;;789.67;708.30;;;;;;;;;;5070744;28;20045;-60
2023/08/31 03:01:27;;;;;;;783.60;700.72;;;;;;;;;;5070004;28;20818;-60
2023/08/31 03:03:54;;;;;;;792.53;706.50;;;;;;;;;;5052496;28;20036;-60
2023/08/31 03:06:21;;;;;;;792.20;707.72;;;;;;;;;;5051428;28;20045;-60
2023/08/31 03:11:48;;;;;;;789.95;703.20;;;;;;;;;;5076659;22;20067;-87
2023/08/31 03:14:15;;;;;;;783.10;701.33;;;;;;;;;;5051874;28;20105;-86
2023/08/31 03:16:42;;;;;;;773.55;694.67;;;;;;;;;;5037166;28;20043;-85
2023/08/31 03:19:09;;;;;;;788.47;703.67;;;;;;;;;;5048276;28;20041;-86
2023/08/31 03:21:35;;;;;;;798.08;708.88;;;;;;;;;;5049774;28;20114;-85
2023/08/31 03:24:02;;;;;;;773.65;691.35;;;;;;;;;;5051088;28;20094;-86
2023/08/31 03:26:30;;;;;;;794.13;711.97;;;;;;;;;;5030958;28;20037;-86
2023/08/31 03:28:57;;;;;;;774.85;692.38;;;;;;;;;;5020066;28;20243;-85
2023/08/31 03:31:24;;;;;;;785.40;695.90;;;;;;;;;;5014214;28;20539;-86
2023/08/31 03:33:51;;;;;;;826.63;705.75;;;;;;;;;;5030311;28;20044;-86
2023/08/31 03:36:17;;;;;;;785.22;705.50;;;;;;;;;;5050254;28;20455;-86
2023/08/31 03:38:44;;;;;;;787.10;705.67;;;;;;;;;;5048874;28;20045;-86
2023/08/31 03:41:11;;;;;;;801.30;712.00;;;;;;;;;;5043839;28;20037;-86
2023/08/31 03:43:38;;;;;;;779.42;698.65;;;;;;;;;;5044936;28;20076;-86
2023/08/31 03:46:05;;;;;;;789.28;707.80;;;;;;;;;;5019653;28;20492;-86
2023/08/31 03:48:32;;;;;;;854.30;717.22;;;;;;;;;;5029343;28;20110;-85
2023/08/31 03:50:59;;;;;;;785.60;702.90;;;;;;;;;;5031986;28;20037;-86
2023/08/31 03:53:25;;;;;;;767.70;687.58;;;;;;;;;;5029572;28;20103;-85
2023/08/31 03:55:56;;;;;;;774.53;689.70;;;;;;;;;;5030281;28;20045;-86
2023/08/31 03:58:23;;;;;;;786.63;703.47;;;;;;;;;;5030573;28;20048;-85
2023/08/31 04:00:52;;;;;;;776.78;692.97;;;;;;;;;;5030981;28;20040;-85
2023/08/31 04:03:18;;;;;;;780.97;695.55;;;;;;;;;;5048336;28;20041;-84
2023/08/31 04:05:46;;;;;;;769.38;683.75;;;;;;;;;;5029933;28;20467;-85
2023/08/31 04:08:13;;;;;;;775.70;695.00;;;;;;;;;;5047617;28;20047;-85
2023/08/31 04:10:40;;;;;;;791.92;702.03;;;;;;;;;;5035412;28;20043;-85
2023/08/31 04:13:06;;;;;;;783.90;692.55;;;;;;;;;;5030074;28;20048;-86
2023/08/31 04:15:34;;;;;;;813.75;700.97;;;;;;;;;;5038282;28;20138;-86
2023/08/31 04:18:01;;;;;;;767.00;686.65;;;;;;;;;;5046109;28;20044;-85
2023/08/31 04:20:28;;;;;;;786.17;701.90;;;;;;;;;;5041210;28;20045;-86
2023/08/31 04:22:54;;;;;;;770.05;688.90;;;;;;;;;;5027539;28;20045;-86
2023/08/31 04:25:21;;;;;;;761.65;680.33;;;;;;;;;;5038740;28;20033;-86
2023/08/31 04:27:48;;;;;;;773.83;690.42;;;;;;;;;;5046820;28;20033;-86
2023/08/31 04:30:15;;;;;;;771.90;693.28;;;;;;;;;;5030770;28;20052;-85
2023/08/31 04:32:44;;;;;;;774.08;689.25;;;;;;;;;;5029437;28;20048;-86
2023/08/31 04:35:11;;;;;;;777.72;693.17;;;;;;;;;;5045942;28;20041;-86
2023/08/31 04:37:37;;;;;;;774.83;693.90;;;;;;;;;;5045263;28;20156;-85
2023/08/31 04:40:04;;;;;;;779.40;698.13;;;;;;;;;;5027937;28;20472;-85
2023/08/31 04:42:31;;;;;;;853.97;710.63;;;;;;;;;;5043531;28;20041;-86
2023/08/31 04:44:57;;;;;;;772.05;691.20;;;;;;;;;;5048638;28;20438;-85
2023/08/31 04:47:24;;;;;;;781.40;697.42;;;;;;;;;;5043028;28;20055;-86
2023/08/31 04:49:51;;;;;;;773.63;689.85;;;;;;;;;;5013154;28;20048;-86
2023/08/31 04:52:18;;;;;;;775.88;694.50;;;;;;;;;;5045188;28;20091;-86
2023/08/31 04:54:45;;;;;;;806.65;703.45;;;;;;;;;;5046333;28;20072;-87
2023/08/31 04:57:11;;;;;;;807.75;699.85;;;;;;;;;;5037045;28;20143;-87
2023/08/31 04:59:38;;;;;;;763.75;685.20;;;;;;;;;;5044688;28;20504;-87
2023/08/31 05:02:05;;;;;;;762.92;681.88;;;;;;;;;;5029134;28;20140;-86
2023/08/31 05:04:31;;;;;;;801.13;714.00;;;;;;;;;;5046390;28;20067;-86
2023/08/31 05:06:58;;;;;;;782.17;700.20;;;;;;;;;;5028327;28;20468;-87
2023/08/31 05:09:25;;;;;;;813.22;713.20;;;;;;;;;;5029499;28;20428;-86
2023/08/31 05:11:52;;;;;;;781.22;695.95;;;;;;;;;;5045415;28;20132;-87
2023/08/31 05:14:18;;;;;;;793.50;710.70;;;;;;;;;;5035666;28;20575;-86
2023/08/31 05:16:45;;;;;;;774.85;692.70;;;;;;;;;;5035573;28;20052;-87
2023/08/31 05:19:12;;;;;;;798.22;701.35;;;;;;;;;;5027814;28;20037;-86
2023/08/31 05:21:38;;;;;;;771.60;683.90;;;;;;;;;;5043322;28;20037;-87
2023/08/31 05:24:08;;;;;;;771.28;690.65;;;;;;;;;;5029051;28;20056;-87
2023/08/31 05:26:35;;;;;;;798.17;711.53;;;;;;;;;;5028231;28;20052;-86
2023/08/31 05:29:03;;;;;;;778.78;698.70;;;;;;;;;;5032543;28;20071;-87
2023/08/31 05:31:47;;;;;;;778.35;694.67;;;;;;;;;;5044350;28;20045;-87
2023/08/31 05:34:47;;;;;;;788.55;699.13;;;;;;;;;;5041779;28;20065;-87
2023/08/31 05:37:36;;;;;;;783.45;701.85;;;;;;;;;;5010144;28;20053;-88
2023/08/31 05:40:10;;;;;;;806.22;715.13;;;;;;;;;;5038908;28;20040;-87
2023/08/31 05:42:37;;;;;;;902.35;725.33;;;;;;;;;;5035560;28;20045;-87
2023/08/31 05:45:07;;;;;;;808.10;720.72;;;;;;;;;;5048023;28;20142;-87
2023/08/31 05:47:39;;;;;;;808.55;726.45;;;;;;;;;;5033952;28;20068;-87
2023/08/31 05:50:06;;;;;;;806.53;726.63;;;;;;;;;;5029110;28;20076;-87
2023/08/31 05:52:33;;;;;;;828.53;741.53;;;;;;;;;;5026927;28;20107;-87
2023/08/31 05:55:03;;;;;;;849.63;759.80;;;;;;;;;;5026867;28;20040;-87
2023/08/31 05:57:41;;;;;;;890.88;774.85;;;;;;;;;;5019557;28;20049;-87
2023/08/31 06:03:48;;;;;;;870.75;758.55;;;;;;;;;;5033315;28;20135;-86
2023/08/31 06:07:11;;;;;;;;;;;;;;;;;;;;;
2023/08/31 06:21:55;;;;;;;844.42;748.22;;;;;;;;;;4911312;29;20063;-86
2023/08/31 06:24:39;;;;;;;1038.88;777.58;;;;;;;;;;4896844;29;20056;-86
2023/08/31 06:27:36;;;;;;;1039.35;771.88;;;;;;;;;;4850187;29;20068;-86
2023/08/31 06:30:57;;;;;;;971.65;748.30;;;;;;;;;;4831215;29;20291;-86
2023/08/31 06:37:27;;;;;;;815.58;722.85;;;;;;;;;;4768350;29;20059;-86
2023/08/31 06:40:40;;;;;;;792.28;710.15;;;;;;;;;;4809311;29;20418;-86
2023/08/31 06:43:48;;;;;;;804.38;718.05;;;;;;;;;;4788100;29;20544;-85
2023/08/31 06:46:37;;;;;;;802.80;715.60;;;;;;;;;;4786366;29;20054;-86
2023/08/31 06:53:11;;;;;;;794.25;712.25;;;;;;;;;;4874926;29;20398;-86
2023/08/31 06:56:01;;;;;;;822.22;718.45;;;;;;;;;;4858053;29;20041;-86
2023/08/31 06:58:33;;;;;;;794.28;710.40;;;;;;;;;;4920173;29;20051;-86
2023/08/31 07:01:07;;;;;;;823.90;732.03;;;;;;;;;;4927505;29;20066;-86
2023/08/31 07:03:49;;;;;;;794.08;711.72;;;;;;;;;;4972266;28;20183;-86
2023/08/31 07:06:29;;;;;;;812.35;720.40;;;;;;;;;;5022137;28;20454;-86
2023/08/31 07:09:08;;;;;;;816.35;736.10;;;;;;;;;;5033630;28;20496;-86
2023/08/31 07:11:55;;;;;;;843.53;754.80;;;;;;;;;;5029962;28;20060;-86
2023/08/31 07:18:17;;;;;;;911.25;817.13;;;;;;;;;;5049669;28;20500;-86
2023/08/31 07:21:25;;;;;;;931.40;841.05;;;;;;;;;;5005528;28;20056;-86
2023/08/31 07:24:27;;;;;;;941.20;853.28;;;;;;;;;;5030909;28;20132;-86
2023/08/31 07:27:25;;;;;;;954.90;863.58;;;;;;;;;;5018094;28;20147;-86
2023/08/31 07:30:38;;;;;;;969.60;880.42;;;;;;;;;;5042765;28;20056;-87
2023/08/31 07:33:15;;;;;;;971.92;879.15;;;;;;;;;;5031819;28;20038;-86
2023/08/31 07:36:45;;;;;;;965.47;878.45;;;;;;;;;;5048656;28;20562;-85
2023/08/31 07:39:24;;;;;;;962.85;871.13;;;;;;;;;;5043737;28;20072;-86
2023/08/31 07:42:51;;;;;;;960.17;871.38;;;;;;;;;;5035123;28;20047;-85
2023/08/31 07:46:32;;;;;;;981.45;886.05;;;;;;;;;;4978779;28;20093;-87
2023/08/31 07:49:21;;;;;;;992.58;894.55;;;;;;;;;;4890345;29;20122;-86
2023/08/31 07:52:48;;;;;;;984.28;887.05;;;;;;;;;;4916321;29;20055;-87
2023/08/31 07:55:18;;;;;;;970.50;876.72;;;;;;;;;;4922617;29;20040;-85
2023/08/31 07:58:10;;;;;;;970.58;878.80;;;;;;;;;;4907364;29;20051;-86
2023/08/31 08:00:47;;;;;;;1148.63;916.55;;;;;;;;;;4920325;29;20534;-86
2023/08/31 08:03:37;;;;;;;;;;;;;;;;;;4920738;29;20771;-87
2023/08/31 08:06:19;;;;;;;950.22;864.70;;;;;;;;;;4921978;29;19946;-86
2023/08/31 08:09:20;;;;;;;970.50;877.47;;;;;;;;;;4914385;29;20059;-86
2023/08/31 08:12:10;;;;;;;963.63;866.63;;;;;;;;;;4905586;29;20636;-86
2023/08/31 08:15:15;;;;;;;980.45;882.13;;;;;;;;;;4904278;29;20048;-85
2023/08/31 08:18:17;;;;;;;970.50;873.15;;;;;;;;;;4902952;29;20160;-86
2023/08/31 08:20:49;;;;;;;959.15;870.60;;;;;;;;;;4893742;29;20048;-85
2023/08/31 08:23:43;;;;;;;945.33;856.25;;;;;;;;;;4934161;28;20046;-86
2023/08/31 08:29:34;;;;;;;941.97;853.40;;;;;;;;;;5035023;28;20406;-86
2023/08/31 08:32:03;;;;;;;948.25;859.10;;;;;;;;;;4996057;28;20057;-86
2023/08/31 08:34:55;;;;;;;954.00;859.20;;;;;;;;;;5018027;28;20089;-86
2023/08/31 08:37:59;;;;;;;961.88;872.78;;;;;;;;;;5015071;28;20076;-85
2023/08/31 08:41:06;;;;;;;968.70;877.20;;;;;;;;;;5007054;28;20560;-86
2023/08/31 08:44:03;;;;;;;960.05;872.60;;;;;;;;;;5031501;28;20124;-86
2023/08/31 08:46:37;;;;;;;986.53;891.65;;;;;;;;;;4999423;28;20052;-86
2023/08/31 08:49:14;;;;;;;994.40;900.42;;;;;;;;;;5021549;28;20041;-85
2023/08/31 08:52:04;;;;;;;999.00;901.25;;;;;;;;;;5019024;28;20099;-85
2023/08/31 08:54:52;;;;;;;998.90;902.83;;;;;;;;;;5031747;28;20483;-85
2023/08/31 09:00:36;;;;;;;1024.10;912.50;;;;;;;;;;4976592;28;20059;-86
2023/08/31 09:03:45;;;;;;;998.85;904.03;;;;;;;;;;4976791;28;20057;-86
2023/08/31 09:06:40;;;;;;;992.78;901.78;;;;;;;;;;4954749;28;20513;-86
2023/08/31 09:09:22;;;;;;;998.17;905.53;;;;;;;;;;4984785;28;20089;-86
2023/08/31 09:12:02;;;;;;;993.92;901.05;;;;;;;;;;4961544;28;20042;-86
2023/08/31 09:15:42;;;;;;;1004.38;908.35;;;;;;;;;;4998211;28;20133;-85
2023/08/31 09:21:57;;;;;;;1040.35;936.55;;;;;;;;;;4933475;29;20223;-85
2023/08/31 09:24:44;;;;;;;1026.05;926.53;;;;;;;;;;4927617;29;20086;-86
2023/08/31 09:27:44;;;;;;;1023.45;928.42;;;;;;;;;;4929802;29;20062;-85
2023/08/31 09:31:05;;;;;;;1014.85;922.90;;;;;;;;;;4853785;29;20057;-87
2023/08/31 09:34:09;;;;;;;1030.45;926.90;;;;;;;;;;4815380;29;20045;-86
2023/08/31 09:37:45;;;;;;;1014.17;918.72;;;;;;;;;;4807561;29;20057;-87
2023/08/31 09:45:15;;;;;;;989.92;899.17;;;;;;;;;;4774421;29;20054;-86
2023/08/31 09:48:53;;;;;;;987.03;895.40;;;;;;;;;;4780289;29;20055;-86
2023/08/31 09:52:45;;;;;;;998.72;901.58;;;;;;;;;;4778809;29;20054;-87
2023/08/31 10:00:15;;;;;;;980.40;887.88;;;;;;;;;;4797200;29;20055;-86
2023/08/31 10:07:34;;;;;;;1003.60;908.70;;;;;;;;;;4759856;29;20053;-87
2023/08/31 10:11:05;;;;;;;1008.38;913.38;;;;;;;;;;4786363;29;20062;-86
2023/08/31 10:14:46;;;;;;;;;;;;;;;;;;;;;
2023/08/31 10:18:00;;;;;;;1011.75;921.70;;;;;;;;;;4853942;29;20041;-86
2023/08/31 10:20:49;;;;;;;1018.53;926.05;;;;;;;;;;4878468;29;20056;-87
2023/08/31 10:23:56;;;;;;;1018.40;923.38;;;;;;;;;;4847990;29;20055;-86
2023/08/31 10:26:55;;;;;;;1012.05;918.97;;;;;;;;;;4853191;29;20076;-86
2023/08/31 10:30:04;;;;;;;1006.45;917.15;;;;;;;;;;4925416;28;20050;-87
2023/08/31 10:37:04;;;;;;;1088.43;957.83;;;;;;;;;;4920518;29;20050;-86
2023/08/31 10:40:23;;;;;;;1029.57;937.45;;;;;;;;;;4897914;29;20071;-87
2023/08/31 10:50:49;;;;;;;1009.05;919.00;;;;;;;;;;4847735;29;20531;-86
2023/08/31 10:53:36;;;;;;;1019.72;923.35;;;;;;;;;;4848798;29;20060;-86
2023/08/31 10:57:05;;;;;;;1012.50;919.80;;;;;;;;;;4838480;29;20041;-86
2023/08/31 11:00:04;;;;;;;1009.10;912.97;;;;;;;;;;4841145;29;20065;-86
2023/08/31 11:06:10;;;;;;;1002.83;909.38;;;;;;;;;;4853168;29;20050;-87
2023/08/31 11:08:48;;;;;;;996.92;905.63;;;;;;;;;;4853040;29;20059;-86
2023/08/31 11:11:26;;;;;;;1001.10;908.92;;;;;;;;;;4888067;29;20072;-87
2023/08/31 11:13:59;;;;;;;1001.97;907.47;;;;;;;;;;4937623;28;20130;-86
2023/08/31 11:16:37;;;;;;;1009.33;912.30;;;;;;;;;;4933358;29;20581;-86
2023/08/31 11:23:23;;;;;;;1001.97;908.65;;;;;;;;;;4977944;28;20046;-86
2023/08/31 11:26:18;;;;;;;999.78;908.70;;;;;;;;;;5032674;28;20543;-85
2023/08/31 11:29:13;;;;;;;993.00;903.58;;;;;;;;;;4988571;28;20107;-86
2023/08/31 11:31:56;;;;;;;1009.00;916.53;;;;;;;;;;5043122;28;20049;-86
2023/08/31 11:34:41;;;;;;;1022.20;920.88;;;;;;;;;;5020609;28;20048;-86
2023/08/31 11:37:22;;;;;;;1020.88;920.60;;;;;;;;;;5030480;28;20045;-86
2023/08/31 11:40:10;;;;;;;1033.40;931.47;;;;;;;;;;5041363;28;20032;-86
2023/08/31 11:43:24;;;;;;;1037.65;938.92;;;;;;;;;;5013386;28;20136;-86
2023/08/31 11:46:28;;;;;;;1042.68;944.22;;;;;;;;;;5023740;28;20129;-86
2023/08/31 11:49:48;;;;;;;1042.20;942.53;;;;;;;;;;5010011;28;20087;-86
2023/08/31 11:53:09;;;;;;;1033.32;938.38;;;;;;;;;;5010761;28;20051;-86
2023/08/31 11:56:13;;;;;;;1038.03;940.33;;;;;;;;;;5031534;28;20487;-86
2023/08/31 11:58:55;;;;;;;1030.32;937.22;;;;;;;;;;5045778;28;20037;-86
2023/08/31 12:02:04;;;;;;;1024.20;931.63;;;;;;;;;;5037979;28;20458;-85
2023/08/31 12:05:09;;;;;;;1018.03;926.05;;;;;;;;;;5067321;28;20055;-85
2023/08/31 12:07:45;;;;;;;1024.38;931.90;;;;;;;;;;5041620;28;20471;-86
2023/08/31 12:10:30;;;;;;;1030.65;936.45;;;;;;;;;;5030105;28;20045;-86
2023/08/31 12:13:17;;;;;;;1030.30;932.28;;;;;;;;;;5028857;28;20049;-86
2023/08/31 12:16:02;;;;;;;1082.20;965.00;;;;;;;;;;5037734;28;20098;-86
2023/08/31 12:18:50;;;;;;;1061.32;950.75;;;;;;;;;;5045799;28;20397;-86
2023/08/31 12:21:27;;;;;;;1021.83;927.58;;;;;;;;;;5029804;28;20076;-86
2023/08/31 12:24:06;;;;;;;1018.92;927.45;;;;;;;;;;5031832;28;20045;-85
2023/08/31 12:26:43;;;;;;;1014.85;919.38;;;;;;;;;;5037973;28;20057;-86
2023/08/31 12:29:43;;;;;;;998.63;910.92;;;;;;;;;;5022095;28;20492;-85
2023/08/31 12:32:15;;;;;;;1000.90;912.08;;;;;;;;;;5045525;28;20037;-85
2023/08/31 12:34:57;;;;;;;1016.47;924.50;;;;;;;;;;5038358;28;20416;-86
2023/08/31 12:37:57;;;;;;;1012.42;921.97;;;;;;;;;;5025718;28;20045;-86
2023/08/31 12:40:53;;;;;;;1020.15;922.80;;;;;;;;;;5024395;28;20056;-86
2023/08/31 12:43:57;;;;;;;1026.47;928.75;;;;;;;;;;5042370;28;20048;-86
2023/08/31 12:46:46;;;;;;;1026.78;931.97;;;;;;;;;;5022032;28;20048;-86
2023/08/31 12:49:31;;;;;;;1011.28;919.80;;;;;;;;;;5023650;28;20718;-86
2023/08/31 12:52:15;;;;;;;1027.15;932.63;;;;;;;;;;5026138;28;20095;-86
2023/08/31 12:54:50;;;;;;;1035.05;935.70;;;;;;;;;;5013847;28;20046;-86
2023/08/31 12:57:50;;;;;;;1009.25;919.20;;;;;;;;;;5031312;28;20041;-86
2023/08/31 13:00:43;;;;;;;1047.88;934.25;;;;;;;;;;5018410;28;20492;-86
2023/08/31 13:03:29;;;;;;;1008.25;917.70;;;;;;;;;;5028359;28;20131;-87
2023/08/31 13:06:17;;;;;;;1012.88;921.42;;;;;;;;;;5047826;28;20510;-86
2023/08/31 13:09:24;;;;;;;1006.55;917.55;;;;;;;;;;5014762;28;20427;-86
2023/08/31 13:12:18;;;;;;;1012.55;921.22;;;;;;;;;;4985058;28;20686;-87
2023/08/31 13:15:18;;;;;;;1021.90;926.17;;;;;;;;;;4956260;28;20065;-86
2023/08/31 13:18:36;;;;;;;1006.20;917.80;;;;;;;;;;4972706;28;20129;-86
2023/08/31 13:21:22;;;;;;;1024.53;926.92;;;;;;;;;;4983005;28;20069;-86
2023/08/31 13:24:03;;;;;;;1017.40;921.83;;;;;;;;;;4961675;28;20054;-86
2023/08/31 13:26:52;;;;;;;1017.70;927.17;;;;;;;;;;4969025;28;20050;-87
2023/08/31 13:32:54;;;;;;;1019.42;920.17;;;;;;;;;;4978891;28;20038;-86
2023/08/31 13:36:14;;;;;;;1011.45;919.63;;;;;;;;;;4952348;28;20136;-86
2023/08/31 13:39:26;;;;;;;;;;;;;;;;;;;;;
2023/08/31 13:45:15;;;;;;;1027.07;932.92;;;;;;;;;;4945046;28;20550;-86
2023/08/31 13:48:04;;;;;;;;;;;;;;;;;;;;;
2023/08/31 13:51:23;;;;;;;;;;;;;;;;;;4960698;28;20049;-87
2023/08/31 13:54:10;;;;;;;1023.38;929.83;;;;;;;;;;4930236;28;19926;-86
2023/08/31 13:57:17;;;;;;;1016.95;925.55;;;;;;;;;;4928916;28;20057;-86
2023/08/31 13:59:50;;;;;;;1026.72;930.05;;;;;;;;;;4929686;29;20134;-86
2023/08/31 14:02:33;;;;;;;1013.65;921.80;;;;;;;;;;4909428;28;20055;-86
2023/08/31 14:05:18;;;;;;;1032.43;936.05;;;;;;;;;;4939171;28;20055;-86
2023/08/31 14:08:04;;;;;;;1024.47;929.20;;;;;;;;;;4952587;28;20062;-86
2023/08/31 14:10:48;;;;;;;1028.47;932.38;;;;;;;;;;4936773;28;20055;-86
2023/08/31 14:13:37;;;;;;;1022.22;926.88;;;;;;;;;;4933429;28;20078;-86
2023/08/31 14:16:36;;;;;;;;;;;;;;;;;;;;;
2023/08/31 14:19:40;;;;;;;1016.85;923.60;;;;;;;;;;4959693;28;20051;-86
2023/08/31 14:22:28;;;;;;;1010.00;916.55;;;;;;;;;;4993664;28;20045;-86
2023/08/31 14:25:10;;;;;;;993.92;901.55;;;;;;;;;;5027728;28;20538;-87
2023/08/31 14:27:50;;;;;;;1019.08;913.55;;;;;;;;;;5031827;28;20037;-89
2023/08/31 14:31:08;;;;;;;961.90;871.10;;;;;;;;;;5032002;28;20056;-87
2023/08/31 14:33:52;;;;;;;1055.63;876.65;;;;;;;;;;5022759;28;20049;-88
2023/08/31 14:36:43;;;;;;;1038.35;846.55;;;;;;;;;;5031150;28;20095;-88
2023/08/31 14:51:18;;;;;;;815.00;729.63;;;;;;;;;;4868121;29;20181;-87
2023/08/31 14:54:22;;;;;;;;;;;;;;;;;;;;;
2023/08/31 14:58:21;;;;;;;;;;;;;;;;;;;;;
2023/08/31 15:01:44;;;;;;;796.22;713.67;;;;;;;;;;4787609;29;20086;-86
2023/08/31 15:12:41;;;;;;;;;;;;;;;;;;;;;
2023/08/31 15:51:41;;;;;;;1044.90;746.83;;;;;;;;;;4772562;29;20058;-85
2023/08/31 17:31:22;;;;;;;798.45;712.58;;;;;;;;;;1068457;26;20467;-60
2023/08/31 17:33:52;;;;;;;805.33;718.63;;;;;;;;;;5049641;28;20052;-60
2023/08/31 17:36:19;;;;;;;786.97;706.58;;;;;;;;;;5050551;28;20115;-60
2023/08/31 17:38:46;;;;;;;782.85;702.03;;;;;;;;;;5047186;28;20533;-59
2023/08/31 17:41:13;;;;;;;795.15;713.97;;;;;;;;;;5049884;28;20120;-62
2023/08/31 17:43:45;;;;;;;773.30;692.50;;;;;;;;;;5047646;28;20055;-60
2023/08/31 17:46:15;;;;;;;774.47;693.05;;;;;;;;;;5025143;28;20056;-59
2023/08/31 17:48:44;;;;;;;781.35;698.25;;;;;;;;;;5050217;28;20041;-61
2023/08/31 17:51:11;;;;;;;763.67;683.70;;;;;;;;;;5049188;28;20422;-60
2023/08/31 17:53:39;;;;;;;765.63;686.40;;;;;;;;;;5045293;28;20044;-60
2023/08/31 17:56:05;;;;;;;763.28;683.78;;;;;;;;;;5049548;28;20032;-60
2023/08/31 17:58:32;;;;;;;763.78;683.70;;;;;;;;;;5047967;28;20095;-60
2023/08/31 18:00:59;;;;;;;766.45;686.55;;;;;;;;;;5049249;28;20046;-61
2023/08/31 18:03:26;;;;;;;767.67;686.88;;;;;;;;;;5051647;28;20052;-60
2023/08/31 18:05:53;;;;;;;759.00;678.38;;;;;;;;;;5046513;28;20103;-60
2023/08/31 18:08:27;;;;;;;741.20;661.67;;;;;;;;;;5048975;28;20457;-60
2023/08/31 18:10:54;;;;;;;744.25;664.03;;;;;;;;;;5044802;28;20067;-60
2023/08/31 18:13:21;;;;;;;741.75;661.78;;;;;;;;;;5047353;28;20041;-60
2023/08/31 18:15:49;;;;;;;752.47;665.00;;;;;;;;;;5049533;28;20064;-60
2023/08/31 18:18:16;;;;;;;731.63;653.30;;;;;;;;;;5050826;28;20053;-60
2023/08/31 18:20:43;;;;;;;726.70;647.97;;;;;;;;;;5047170;28;20048;-60
2023/08/31 18:23:10;;;;;;;716.70;638.42;;;;;;;;;;5047522;28;20063;-61
2023/08/31 18:25:37;;;;;;;729.75;650.72;;;;;;;;;;5045071;28;20560;-60
2023/08/31 18:28:03;;;;;;;738.42;650.85;;;;;;;;;;5043747;28;20112;-60
2023/08/31 18:30:30;;;;;;;742.28;662.40;;;;;;;;;;5040571;28;20041;-61
2023/08/31 18:32:58;;;;;;;738.30;658.85;;;;;;;;;;5029642;28;20080;-60
2023/08/31 18:35:25;;;;;;;747.28;650.25;;;;;;;;;;5044813;28;20057;-60
2023/08/31 18:37:52;;;;;;;738.25;637.58;;;;;;;;;;5045104;28;20045;-61
2023/08/31 18:40:20;;;;;;;734.63;642.58;;;;;;;;;;5046546;28;20065;-60
2023/08/31 18:42:46;;;;;;;752.33;634.30;;;;;;;;;;5050436;28;20488;-61
2023/08/31 18:45:17;;;;;;;706.50;628.85;;;;;;;;;;5050349;28;20048;-60
2023/08/31 18:47:45;;;;;;;713.88;631.15;;;;;;;;;;5049077;28;20045;-61
2023/08/31 18:50:19;;;;;;;721.33;642.17;;;;;;;;;;5047774;28;20075;-60
2023/08/31 18:52:47;;;;;;;711.45;624.92;;;;;;;;;;5051653;28;20044;-60
2023/08/31 18:55:15;;;;;;;709.80;627.45;;;;;;;;;;5049030;28;20168;-60
2023/08/31 18:57:44;;;;;;;752.17;632.55;;;;;;;;;;5049108;28;20049;-61
2023/08/31 19:00:12;;;;;;;691.55;613.72;;;;;;;;;;5050601;28;20065;-60
2023/08/31 19:02:41;;;;;;;759.13;628.67;;;;;;;;;;5047913;28;20041;-60
2023/08/31 19:05:07;;;;;;;708.20;623.33;;;;;;;;;;5048506;28;20049;-60
2023/08/31 19:07:34;;;;;;;700.15;621.00;;;;;;;;;;5048676;28;20041;-60